Joliette, North Dakota
Current Conditions -  °F | °C
As of 8:55 AM on Monday 22 Dec 2014 (Local Time) from K2C8 Reporting Station
Haze Haze  
Wind Chill: 26°   Ceiling: 200
Heat Index: 32°   Visibility: 1mi
Dew Point: 32°   Wind: 7mph
Humidity: 100%   Direction: 90°E
Pressure: 29.57"   Gusts: NA
Location:  48.8466°N, 97.3026°W
Report Text: K2C8 221455Z AUTO 09006KT 1SM BR OVC002 00/00 A2957 RMK AO2
Loading
Personal Weather Stations






























Interactive Weather Map New forecast layout! Learn more

10-Day Weather Forecast

Advertisements
Track Severe Weather on mobile